createdAt,value
2019-03-22T00:04:50.476Z,9.93
2019-03-22T00:10:45.449Z,6.11
2019-03-22T00:16:40.498Z,9.63
2019-03-22T00:22:35.455Z,8.6
2019-03-22T00:28:30.496Z,8.95
2019-03-22T00:34:25.500Z,6.42
2019-03-22T00:40:20.503Z,6.31
2019-03-22T00:46:15.482Z,6.1
2019-03-22T00:52:10.511Z,7.57
2019-03-22T00:58:05.481Z,6
2019-03-22T01:04:00.488Z,6.04
2019-03-22T01:09:55.507Z,9
2019-03-22T01:15:50.535Z,5.05
2019-03-22T01:21:45.512Z,7.32
2019-03-22T01:27:41.155Z,8.65
2019-03-22T01:33:35.573Z,9.45
2019-03-22T01:39:30.524Z,6.64
2019-03-22T01:45:25.522Z,9.24
2019-03-22T01:51:20.539Z,6.99
2019-03-22T01:57:15.562Z,8.29
2019-03-22T02:03:10.545Z,6.56
2019-03-22T02:09:05.548Z,6.14
2019-03-22T02:15:00.550Z,5.07
2019-03-22T02:20:55.533Z,5.73
2019-03-22T02:26:50.579Z,6.88
2019-03-22T02:32:45.586Z,5.53
2019-03-22T02:38:40.575Z,8.6
2019-03-22T02:44:35.566Z,6.98
2019-03-22T02:50:30.592Z,8.4
2019-03-22T02:56:25.648Z,7.55
2019-03-22T03:02:20.647Z,6.87
2019-03-22T03:08:15.602Z,5.78
2019-03-22T03:14:10.612Z,6.83
2019-03-22T03:20:05.594Z,8.05
2019-03-22T03:26:00.613Z,7.4
2019-03-22T03:31:55.639Z,5.47
2019-03-22T03:37:50.633Z,9.5
2019-03-22T03:43:45.633Z,5.74
2019-03-22T03:49:40.634Z,6.71
2019-03-22T03:55:35.644Z,6.53
2019-03-22T04:01:30.678Z,6.09
2019-03-22T04:07:25.656Z,8.74
2019-03-22T04:13:20.699Z,9.79
2019-03-22T04:19:15.732Z,8.1
2019-03-22T04:25:10.664Z,9.36
2019-03-22T04:31:05.667Z,5.63
2019-03-22T04:37:00.686Z,8.82
2019-03-22T04:42:55.716Z,8.9
2019-03-22T04:48:50.695Z,7.16
2019-03-22T04:54:45.685Z,8.56
2019-03-22T05:00:40.687Z,9.75
2019-03-22T05:06:35.757Z,8.64
2019-03-22T05:12:30.764Z,9.81
2019-03-22T05:18:25.707Z,7.53
2019-03-22T05:24:20.721Z,7.02
2019-03-22T05:30:15.743Z,12.15
2019-03-22T05:36:10.736Z,5.98
2019-03-22T05:42:05.772Z,8.89
2019-03-22T05:48:00.760Z,9.65
2019-03-22T05:53:55.745Z,8.55
2019-03-22T05:59:50.737Z,11.81
2019-03-22T06:05:45.760Z,10.32
2019-03-22T06:11:40.792Z,13.03
2019-03-22T06:17:35.769Z,11.95
2019-03-22T06:23:30.851Z,10.61
2019-03-22T06:29:25.822Z,12.37
2019-03-22T06:35:20.787Z,9.39
2019-03-22T06:41:15.821Z,12.98
2019-03-22T06:47:11.145Z,9.18
2019-03-22T06:53:05.807Z,11.47
2019-03-22T06:59:00.802Z,12.95
2019-03-22T07:04:55.881Z,11.62
2019-03-22T07:10:50.818Z,11.34
2019-03-22T07:16:45.804Z,14.37
2019-03-22T07:22:40.832Z,11.17
2019-03-22T07:28:35.887Z,11.55
2019-03-22T07:34:30.829Z,11.17
2019-03-22T07:40:25.835Z,10.76
2019-03-22T07:46:20.859Z,11.22
2019-03-22T07:52:15.888Z,13.18
2019-03-22T07:58:10.874Z,11.06
2019-03-22T08:04:05.868Z,9.55
2019-03-22T08:10:00.883Z,8.82
2019-03-22T08:15:57.505Z,10.87
2019-03-22T08:21:50.874Z,9.48
2019-03-22T08:27:45.881Z,10.76
2019-03-22T08:33:40.935Z,11.12
2019-03-22T08:39:35.925Z,9.87
2019-03-22T08:45:30.899Z,10.98
2019-03-22T08:51:25.939Z,9.45
2019-03-22T08:57:20.934Z,9.39
2019-03-22T09:03:15.978Z,9.28
2019-03-22T09:09:10.952Z,12.07
2019-03-22T09:15:05.940Z,12.78
2019-03-22T09:21:00.919Z,12.96
2019-03-22T09:26:55.952Z,11.94
2019-03-22T09:32:50.952Z,14.04
2019-03-22T09:38:45.937Z,11.71
2019-03-22T09:44:43.687Z,10.51
2019-03-22T09:50:35.976Z,10.54
2019-03-22T09:56:30.965Z,12.31
2019-03-22T10:02:25.980Z,14.89
2019-03-22T10:08:20.998Z,13.6
2019-03-22T10:14:15.970Z,13.24
2019-03-22T10:20:11.002Z,15.78
2019-03-22T10:26:06.018Z,14.54
2019-03-22T10:32:01.001Z,14.11
2019-03-22T10:38:00.300Z,13.56
2019-03-22T10:43:51.023Z,15.71
2019-03-22T10:49:46.006Z,14.25
2019-03-22T10:55:41.023Z,14.94
2019-03-22T11:01:46.740Z,13.9
2019-03-22T11:07:31.031Z,15.85
2019-03-22T11:13:26.040Z,15.21
2019-03-22T11:19:21.056Z,15.31
2019-03-22T11:25:16.056Z,13.98
2019-03-22T11:31:11.053Z,15.21
2019-03-22T11:37:07.710Z,14.05
2019-03-22T11:43:08.405Z,14.21
2019-03-22T11:48:56.075Z,15.47
2019-03-22T11:54:51.069Z,12.59
2019-03-22T12:00:46.070Z,16.39
2019-03-22T12:06:41.147Z,14.72
2019-03-22T12:12:36.097Z,16.25
2019-03-22T12:18:31.084Z,13.81
2019-03-22T12:24:26.143Z,13.71
2019-03-22T12:30:21.084Z,13.26
2019-03-22T12:36:16.102Z,12.52
2019-03-22T12:42:11.120Z,11.36
2019-03-22T12:48:06.132Z,12.53
2019-03-22T12:54:01.119Z,15.29
2019-03-22T12:59:56.140Z,14.52
2019-03-22T13:05:51.151Z,14.18
2019-03-22T13:11:46.149Z,13
2019-03-22T13:17:41.142Z,11.38
2019-03-22T13:23:36.205Z,13.79
2019-03-22T13:29:31.174Z,13.9
2019-03-22T13:35:26.208Z,12.81
2019-03-22T13:41:21.192Z,14.32
2019-03-22T13:47:16.172Z,11.91
2019-03-22T13:53:11.193Z,15.84
2019-03-22T13:59:06.184Z,11.98
2019-03-22T14:05:01.206Z,13.12
2019-03-22T14:10:56.212Z,11.06
2019-03-22T14:16:51.251Z,12.44
2019-03-22T14:22:46.194Z,11.76
2019-03-22T14:28:41.235Z,17.57
2019-03-22T14:34:36.229Z,14.03
2019-03-22T14:40:31.259Z,12.71
2019-03-22T14:46:26.251Z,11.51
2019-03-22T14:52:21.271Z,15.38
2019-03-22T14:58:16.261Z,12.63
2019-03-22T15:04:11.318Z,10.37
2019-03-22T15:10:06.281Z,12.42
2019-03-22T15:16:01.256Z,11.09
2019-03-22T15:21:56.301Z,11.8
2019-03-22T15:27:51.293Z,10.63
2019-03-22T15:33:46.444Z,10.75
2019-03-22T15:39:41.288Z,9.3
2019-03-22T15:45:36.329Z,11.11
2019-03-22T15:51:31.290Z,11.24
2019-03-22T15:57:26.335Z,12.2
2019-03-22T16:03:21.336Z,15.07
2019-03-22T16:09:16.349Z,10.56
2019-03-22T16:15:11.429Z,14.16
2019-03-22T16:21:06.367Z,11.79
2019-03-22T16:27:01.394Z,11.18
2019-03-22T16:32:56.376Z,12.07
2019-03-22T16:38:51.367Z,14.04
2019-03-22T16:44:46.369Z,13.33
2019-03-22T16:50:41.427Z,14.87
2019-03-22T16:56:36.489Z,13.09
2019-03-22T17:02:31.400Z,17.78
2019-03-22T17:08:26.460Z,15.92
2019-03-22T17:14:21.843Z,14.73
2019-03-22T17:20:16.392Z,15.83
2019-03-22T17:26:11.415Z,13.25
2019-03-22T17:32:06.412Z,17.72
